createdAt,value
2023-05-20T00:01:18.283Z,25.45
2023-05-20T00:03:46.600Z,24.88
2023-05-20T00:06:14.111Z,27.50
2023-05-20T00:08:41.522Z,21.15
2023-05-20T00:11:12.522Z,25.88
2023-05-20T00:13:40.080Z,23.65
2023-05-20T00:16:07.757Z,28.67
2023-05-20T00:18:35.450Z,22.08
2023-05-20T00:21:02.934Z,26.48
2023-05-20T00:23:30.495Z,27.23
2023-05-20T00:25:59.801Z,24.42
2023-05-20T00:28:28.142Z,22.13
2023-05-20T00:30:55.609Z,21.60
2023-05-20T00:33:23.066Z,28.15
2023-05-20T00:35:50.837Z,23.58
2023-05-20T00:38:18.613Z,29.48
2023-05-20T00:40:46.113Z,25.88
2023-05-20T00:43:13.470Z,25.20
2023-05-20T00:45:40.971Z,23.80
2023-05-20T00:48:09.810Z,25.60
2023-05-20T00:50:37.436Z,23.70
2023-05-20T00:53:05.162Z,27.80
2023-05-20T00:55:33.567Z,25.58
2023-05-20T00:58:01.490Z,26.80
2023-05-20T01:00:29.125Z,22.13
2023-05-20T01:02:57.427Z,27.15
2023-05-20T01:05:25.335Z,27.15
2023-05-20T01:07:53.351Z,26.05
2023-05-20T01:10:22.865Z,20.85
2023-05-20T01:12:51.819Z,26.63
2023-05-20T01:15:19.212Z,20.00
2023-05-20T01:17:51.156Z,25.65
2023-05-20T01:20:19.080Z,23.50
2023-05-20T01:22:56.552Z,23.67
2023-05-20T01:25:25.185Z,23.55
2023-05-20T01:27:53.003Z,23.63
2023-05-20T01:30:21.196Z,22.42
2023-05-20T01:32:52.175Z,22.95
2023-05-20T01:35:20.856Z,23.73
2023-05-20T01:37:50.096Z,21.60
2023-05-20T01:40:17.779Z,23.55
2023-05-20T01:42:46.095Z,23.48
2023-05-20T01:45:13.919Z,24.02
2023-05-20T01:47:41.747Z,20.13
2023-05-20T01:50:09.340Z,20.48
2023-05-20T01:52:37.175Z,25.45
2023-05-20T01:55:05.121Z,23.48
2023-05-20T01:57:32.923Z,25.73
2023-05-20T02:00:00.527Z,26.13
2023-05-20T02:02:28.202Z,33.60
2023-05-20T02:04:55.837Z,32.70
2023-05-20T02:07:23.295Z,36.83
2023-05-20T02:09:52.764Z,37.42
2023-05-20T02:12:20.376Z,35.33
2023-05-20T02:14:48.167Z,39.05
2023-05-20T02:17:17.298Z,35.53
2023-05-20T02:19:45.408Z,37.50
2023-05-20T02:22:14.762Z,38.80
2023-05-20T02:24:44.697Z,38.08
2023-05-20T02:27:13.099Z,34.45
2023-05-20T02:29:40.671Z,37.00
2023-05-20T02:32:09.053Z,34.33
2023-05-20T02:34:37.096Z,33.92
2023-05-20T02:37:04.821Z,36.17
2023-05-20T02:39:33.031Z,32.60
2023-05-20T02:42:00.894Z,35.63
2023-05-20T02:44:28.306Z,33.40
2023-05-20T02:46:55.810Z,32.03
2023-05-20T02:49:24.465Z,30.20
2023-05-20T02:51:52.366Z,34.13
2023-05-20T02:54:20.032Z,27.55
2023-05-20T02:56:47.481Z,33.28
2023-05-20T02:59:15.506Z,28.65
2023-05-20T03:01:43.357Z,27.92
2023-05-20T03:04:11.684Z,29.05
2023-05-20T03:06:44.436Z,28.60
2023-05-20T03:09:12.009Z,32.50
2023-05-20T03:11:40.398Z,31.08
2023-05-20T03:14:08.184Z,25.80
2023-05-20T03:16:35.780Z,27.40
2023-05-20T03:19:03.282Z,24.40
2023-05-20T03:21:30.782Z,28.38
2023-05-20T03:23:58.609Z,26.17
2023-05-20T03:26:26.013Z,31.15
2023-05-20T03:28:53.445Z,30.55
2023-05-20T03:31:21.371Z,32.17
2023-05-20T03:33:49.048Z,36.85
2023-05-20T03:36:16.598Z,32.40
2023-05-20T03:38:44.097Z,35.50
2023-05-20T03:41:11.554Z,36.40
2023-05-20T03:43:39.163Z,35.03
2023-05-20T03:46:06.799Z,36.67
2023-05-20T03:48:35.024Z,28.13
2023-05-20T03:51:02.616Z,34.38
2023-05-20T03:53:30.293Z,29.80
2023-05-20T03:55:57.760Z,32.75
2023-05-20T03:58:26.383Z,39.45
2023-05-20T04:00:53.961Z,39.60
2023-05-20T04:03:22.891Z,40.88
2023-05-20T04:05:50.853Z,37.72
2023-05-20T04:08:22.240Z,41.08
2023-05-20T04:10:49.831Z,40.90
2023-05-20T04:13:17.435Z,35.53
2023-05-20T04:15:45.122Z,35.35
2023-05-20T04:18:13.854Z,37.58
2023-05-20T04:20:41.987Z,28.58
2023-05-20T04:23:10.760Z,67.30
2023-05-20T04:25:41.362Z,34.03
2023-05-20T04:28:10.945Z,29.80
2023-05-20T04:30:38.506Z,29.83
2023-05-20T04:33:06.303Z,25.10
2023-05-20T04:35:35.420Z,22.10
2023-05-20T04:38:05.512Z,22.65
2023-05-20T04:40:32.930Z,23.25
2023-05-20T04:43:00.958Z,27.30
2023-05-20T04:45:28.787Z,26.45
2023-05-20T04:47:56.450Z,27.05
2023-05-20T04:50:23.995Z,26.48
2023-05-20T04:52:51.765Z,23.45
2023-05-20T04:55:19.932Z,23.25
2023-05-20T04:57:47.543Z,25.67
2023-05-20T05:00:16.087Z,21.75
2023-05-20T05:02:44.077Z,20.92
2023-05-20T05:05:11.791Z,21.65
2023-05-20T05:07:40.486Z,22.48
2023-05-20T05:10:08.363Z,19.25
2023-05-20T05:12:35.965Z,20.88
2023-05-20T05:15:05.492Z,18.80
2023-05-20T05:17:33.654Z,17.70
2023-05-20T05:20:01.770Z,22.15
2023-05-20T05:22:32.556Z,19.55
2023-05-20T05:25:00.167Z,23.15
2023-05-20T05:27:27.943Z,19.75
2023-05-20T05:29:55.849Z,19.05
2023-05-20T05:32:24.226Z,18.65
2023-05-20T05:34:51.743Z,21.08
2023-05-20T05:37:19.381Z,18.55
2023-05-20T05:39:47.108Z,14.43
2023-05-20T05:42:14.563Z,17.92
2023-05-20T05:44:42.266Z,20.00
2023-05-20T05:47:09.954Z,16.25
2023-05-20T05:49:37.499Z,16.45
2023-05-20T05:52:05.600Z,16.83
2023-05-20T05:54:33.800Z,19.85
2023-05-20T05:57:02.086Z,19.67
2023-05-20T05:59:32.305Z,16.30
2023-05-20T06:02:00.312Z,21.10
2023-05-20T06:04:27.907Z,13.18
2023-05-20T06:06:57.674Z,18.33
2023-05-20T06:09:25.360Z,24.20
2023-05-20T06:11:53.800Z,19.63
2023-05-20T06:14:21.656Z,21.92
2023-05-20T06:16:49.227Z,21.95
2023-05-20T06:19:19.887Z,22.13
2023-05-20T06:21:47.596Z,19.83
2023-05-20T06:24:16.080Z,26.17
2023-05-20T06:26:46.043Z,23.08
2023-05-20T06:29:13.562Z,26.85
2023-05-20T06:31:41.560Z,23.23
2023-05-20T06:34:09.174Z,27.33
2023-05-20T06:36:37.076Z,25.98
2023-05-20T06:39:06.577Z,24.23
2023-05-20T06:41:35.079Z,22.33
2023-05-20T06:44:09.106Z,23.65
2023-05-20T06:47:16.429Z,24.52
2023-05-20T06:49:47.504Z,21.42
2023-05-20T06:52:15.985Z,18.85
2023-05-20T06:54:43.595Z,16.75
2023-05-20T06:57:12.114Z,20.90
2023-05-20T06:59:41.705Z,15.82
2023-05-20T07:02:09.590Z,14.68
2023-05-20T07:04:37.418Z,19.88
2023-05-20T07:07:05.529Z,22.00
2023-05-20T07:09:33.358Z,18.27
2023-05-20T07:12:02.067Z,21.17
2023-05-20T07:14:30.524Z,27.38
2023-05-20T07:16:58.240Z,19.10
2023-05-20T07:19:26.119Z,18.83
2023-05-20T07:21:54.536Z,16.52
2023-05-20T07:24:36.451Z,19.67
2023-05-20T07:27:05.653Z,21.00
2023-05-20T07:29:33.758Z,18.98
2023-05-20T07:32:01.685Z,22.23
2023-05-20T07:34:29.659Z,20.55
2023-05-20T07:36:57.900Z,23.30
2023-05-20T07:39:26.335Z,22.13
2023-05-20T07:41:54.039Z,16.80
2023-05-20T07:44:23.278Z,22.80
2023-05-20T07:46:52.144Z,17.45
2023-05-20T07:49:21.390Z,19.73
2023-05-20T07:51:49.118Z,15.52
2023-05-20T07:54:17.019Z,19.98
2023-05-20T07:56:47.487Z,17.40
2023-05-20T07:59:15.095Z,11.13
2023-05-20T08:01:45.823Z,14.88
2023-05-20T08:04:16.368Z,22.02
2023-05-20T08:06:45.190Z,16.27
2023-05-20T08:09:18.250Z,12.68
2023-05-20T08:11:50.143Z,12.43
2023-05-20T08:14:18.076Z,13.43
2023-05-20T08:16:49.112Z,15.98
2023-05-20T08:19:16.877Z,15.23
2023-05-20T08:21:48.348Z,11.35
2023-05-20T08:24:16.099Z,11.88
2023-05-20T08:26:44.252Z,11.70
2023-05-20T08:29:12.246Z,10.90
2023-05-20T08:31:40.105Z,10.88
2023-05-20T08:34:08.180Z,11.63
2023-05-20T08:36:35.985Z,13.63
2023-05-20T08:39:04.623Z,12.77
2023-05-20T08:41:32.363Z,10.73
2023-05-20T08:44:00.547Z,12.48
2023-05-20T08:46:28.771Z,12.85
2023-05-20T08:48:59.431Z,7.82
2023-05-20T08:51:27.815Z,11.65
2023-05-20T08:53:55.374Z,8.60
2023-05-20T08:56:23.691Z,9.32
2023-05-20T08:58:51.245Z,8.73
2023-05-20T09:01:18.790Z,7.68
2023-05-20T09:03:46.272Z,9.70
2023-05-20T09:06:20.319Z,9.63
2023-05-20T09:08:52.839Z,9.70
2023-05-20T09:11:22.409Z,11.65
2023-05-20T09:13:50.607Z,12.52
2023-05-20T09:16:18.225Z,8.63
2023-05-20T09:18:46.480Z,9.48
2023-05-20T09:21:14.165Z,6.97
2023-05-20T09:23:41.669Z,9.02
2023-05-20T09:26:09.349Z,12.07
2023-05-20T09:28:39.638Z,10.73
2023-05-20T09:31:08.928Z,8.50
2023-05-20T09:33:37.085Z,12.63
2023-05-20T09:36:04.973Z,11.90
2023-05-20T09:38:38.173Z,14.15
2023-05-20T09:41:11.841Z,11.18
2023-05-20T09:43:42.697Z,7.43
2023-05-20T09:46:10.269Z,6.47
2023-05-20T09:48:39.112Z,10.13
2023-05-20T09:51:07.978Z,7.03
2023-05-20T09:53:36.159Z,7.45
2023-05-20T09:56:03.942Z,11.88
2023-05-20T09:58:32.066Z,7.18
2023-05-20T10:00:59.665Z,6.88
2023-05-20T10:03:28.402Z,8.57
2023-05-20T10:06:05.252Z,6.25
2023-05-20T10:08:51.591Z,5.53
2023-05-20T10:11:43.757Z,5.13
2023-05-20T10:14:49.196Z,7.45
2023-05-20T10:17:28.712Z,5.85
2023-05-20T10:19:59.803Z,11.57
2023-05-20T10:22:37.246Z,8.88
2023-05-20T10:25:08.807Z,6.78
2023-05-20T10:27:47.088Z,8.10
2023-05-20T10:30:21.954Z,7.95
2023-05-20T10:32:56.779Z,9.77
2023-05-20T10:35:26.709Z,6.15
2023-05-20T10:38:11.260Z,7.40
2023-05-20T10:43:13.678Z,7.57
2023-05-20T10:45:51.398Z,9.20
2023-05-20T10:48:32.997Z,10.13
2023-05-20T10:51:04.281Z,6.47
2023-05-20T10:53:42.547Z,9.48
2023-05-20T10:56:26.347Z,8.00
2023-05-20T10:58:54.819Z,9.40
2023-05-20T11:01:24.872Z,8.75
2023-05-20T11:03:53.900Z,7.85
2023-05-20T11:06:27.206Z,5.32
2023-05-20T11:08:54.883Z,11.60
2023-05-20T11:11:22.531Z,12.15
2023-05-20T11:13:53.373Z,14.00
2023-05-20T11:16:22.062Z,6.10
2023-05-20T11:18:50.622Z,7.88
2023-05-20T11:21:19.687Z,8.30
2023-05-20T11:23:47.371Z,9.90
2023-05-20T11:26:15.022Z,11.57
2023-05-20T11:28:43.296Z,9.15
2023-05-20T11:31:11.923Z,11.23
2023-05-20T11:33:43.744Z,7.03
2023-05-20T11:36:26.755Z,6.80
2023-05-20T11:38:57.061Z,9.13
2023-05-20T11:41:25.540Z,6.63
2023-05-20T11:43:58.235Z,7.55
2023-05-20T11:46:25.935Z,9.02
2023-05-20T11:48:57.087Z,4.63
2023-05-20T11:51:27.941Z,10.27
2023-05-20T11:54:05.461Z,8.40
2023-05-20T11:56:37.337Z,8.32
2023-05-20T11:59:05.755Z,10.82
2023-05-20T12:01:37.807Z,5.53
2023-05-20T12:04:05.631Z,4.55
2023-05-20T12:06:33.616Z,6.45
2023-05-20T12:09:07.258Z,8.55
2023-05-20T12:11:35.865Z,8.52
2023-05-20T12:14:04.109Z,9.77
2023-05-20T12:16:32.918Z,8.88
2023-05-20T12:19:01.063Z,6.60
2023-05-20T12:21:29.033Z,5.28
2023-05-20T12:23:58.196Z,7.00
2023-05-20T12:26:26.954Z,8.45
2023-05-20T12:28:55.208Z,6.78
2023-05-20T12:31:22.824Z,5.28
2023-05-20T12:33:51.942Z,6.88
2023-05-20T12:36:22.470Z,5.43
2023-05-20T12:38:50.028Z,8.73
2023-05-20T12:41:17.530Z,8.77
2023-05-20T12:43:45.133Z,7.15
2023-05-20T12:46:12.787Z,7.55
2023-05-20T12:48:42.534Z,5.40
2023-05-20T12:51:10.228Z,6.82
2023-05-20T12:53:37.968Z,6.07
2023-05-20T12:56:06.180Z,4.75
2023-05-20T12:58:35.087Z,6.97
2023-05-20T13:01:02.622Z,7.97
2023-05-20T13:03:30.758Z,6.15
2023-05-20T13:05:59.454Z,8.07
2023-05-20T13:08:28.677Z,5.78
2023-05-20T13:10:56.446Z,8.20
2023-05-20T13:13:24.385Z,4.95
2023-05-20T13:15:51.902Z,13.00
2023-05-20T13:18:20.093Z,6.68
2023-05-20T13:20:47.730Z,9.15
2023-05-20T13:23:15.321Z,6.93
2023-05-20T13:25:42.994Z,5.50
2023-05-20T13:28:10.884Z,7.80
2023-05-20T13:30:38.916Z,7.00
2023-05-20T13:33:07.042Z,7.68
2023-05-20T13:35:34.878Z,6.03
2023-05-20T13:38:02.585Z,7.40
2023-05-20T13:40:30.453Z,7.78
2023-05-20T13:42:58.412Z,7.70
2023-05-20T13:45:26.558Z,5.32
2023-05-20T13:47:54.147Z,9.02
2023-05-20T13:50:21.767Z,5.80
2023-05-20T13:52:49.862Z,9.27
2023-05-20T13:55:18.108Z,6.95
2023-05-20T13:57:45.701Z,7.30
2023-05-20T14:00:13.784Z,5.72
2023-05-20T14:02:41.563Z,9.05
2023-05-20T14:05:09.677Z,7.07
2023-05-20T14:07:37.894Z,6.38
2023-05-20T14:10:06.931Z,9.40
2023-05-20T14:12:34.527Z,5.85
2023-05-20T14:15:02.309Z,8.07
2023-05-20T14:17:30.160Z,8.38
2023-05-20T14:19:57.775Z,11.07
2023-05-20T14:22:26.673Z,7.88
2023-05-20T14:24:54.242Z,11.55
2023-05-20T14:27:21.841Z,7.53
2023-05-20T14:29:49.386Z,6.63
2023-05-20T14:32:16.943Z,8.75
2023-05-20T14:34:44.513Z,5.97
2023-05-20T14:37:12.303Z,5.35
2023-05-20T14:39:39.846Z,6.65
2023-05-20T14:42:07.434Z,7.43
2023-05-20T14:44:35.010Z,7.95
2023-05-20T14:47:02.908Z,6.22
2023-05-20T14:49:31.611Z,14.27
2023-05-20T14:51:59.225Z,19.60
2023-05-20T14:54:27.757Z,14.25
2023-05-20T14:56:55.335Z,13.55
2023-05-20T14:59:23.116Z,12.07
2023-05-20T15:01:50.710Z,7.30
2023-05-20T15:04:18.264Z,9.75
2023-05-20T15:06:45.888Z,9.77
2023-05-20T15:09:13.383Z,9.25
2023-05-20T15:11:40.998Z,7.18
2023-05-20T15:14:08.780Z,9.40
2023-05-20T15:16:36.446Z,9.57
2023-05-20T15:19:04.156Z,10.32
2023-05-20T15:21:32.300Z,11.05
2023-05-20T15:23:59.833Z,14.82
2023-05-20T15:26:27.418Z,12.95
2023-05-20T15:28:55.140Z,16.42
2023-05-20T15:31:23.149Z,16.17
2023-05-20T15:33:51.306Z,16.88
2023-05-20T15:36:18.839Z,19.83
2023-05-20T15:38:46.346Z,12.82
2023-05-20T15:41:14.570Z,9.75
2023-05-20T15:43:42.453Z,9.65
2023-05-20T15:46:11.383Z,11.18
2023-05-20T15:48:39.178Z,7.57
2023-05-20T15:51:06.750Z,10.20
2023-05-20T15:53:34.617Z,10.68
2023-05-20T15:56:02.262Z,7.75
2023-05-20T15:58:29.926Z,8.55
2023-05-20T16:00:58.254Z,9.80
2023-05-20T16:03:26.005Z,8.25
2023-05-20T16:05:53.644Z,5.22
2023-05-20T16:08:23.857Z,10.63
2023-05-20T16:10:51.399Z,9.35
2023-05-20T16:13:18.885Z,7.90
2023-05-20T16:15:47.112Z,4.80
2023-05-20T16:18:15.584Z,9.40
2023-05-20T16:20:43.054Z,9.25
2023-05-20T16:23:10.663Z,7.85
2023-05-20T16:25:38.265Z,6.90
2023-05-20T16:28:06.137Z,7.43
2023-05-20T16:30:35.369Z,16.17
2023-05-20T16:33:03.192Z,9.40
2023-05-20T16:35:31.792Z,8.73
2023-05-20T16:37:59.323Z,8.30
2023-05-20T16:40:26.850Z,8.07
2023-05-20T16:42:54.802Z,8.10
2023-05-20T16:45:22.435Z,21.27
2023-05-20T16:47:50.055Z,12.82
2023-05-20T16:50:17.757Z,8.55
2023-05-20T16:52:45.762Z,13.02
2023-05-20T16:55:13.761Z,12.05
2023-05-20T16:57:42.875Z,12.23
2023-05-20T17:00:11.697Z,11.13
2023-05-20T17:02:40.013Z,9.73
2023-05-20T17:05:08.004Z,12.73
2023-05-20T17:07:36.017Z,12.32
2023-05-20T17:10:03.845Z,8.35
2023-05-20T17:12:31.834Z,9.57
2023-05-20T17:14:59.371Z,11.90
2023-05-20T17:17:26.901Z,13.68
2023-05-20T17:19:54.856Z,10.88
2023-05-20T17:22:22.574Z,16.73
2023-05-20T17:24:50.099Z,20.02
2023-05-20T17:27:17.658Z,17.65
2023-05-20T17:29:47.381Z,22.45
2023-05-20T17:32:14.935Z,12.48
2023-05-20T17:34:42.600Z,18.90
2023-05-20T17:37:10.147Z,18.10
2023-05-20T17:39:37.686Z,17.30
2023-05-20T17:42:05.540Z,15.48
2023-05-20T17:44:33.702Z,12.73
2023-05-20T17:47:01.371Z,15.93
2023-05-20T17:49:29.212Z,19.83
2023-05-20T17:51:57.262Z,13.75
2023-05-20T17:54:24.754Z,18.60
2023-05-20T17:56:52.331Z,18.83
2023-05-20T17:59:19.821Z,17.90
2023-05-20T18:01:47.441Z,12.20
2023-05-20T18:04:15.154Z,13.65
2023-05-20T18:06:43.110Z,13.05
2023-05-20T18:09:10.651Z,10.20
2023-05-20T18:11:39.293Z,12.18
2023-05-20T18:14:06.986Z,13.23
2023-05-20T18:16:35.023Z,13.48
2023-05-20T18:19:03.101Z,12.30
2023-05-20T18:21:31.320Z,14.05
2023-05-20T18:23:58.881Z,13.38
2023-05-20T18:26:26.619Z,12.10
2023-05-20T18:28:54.161Z,13.00
2023-05-20T18:31:21.829Z,15.40
2023-05-20T18:33:49.652Z,9.82
2023-05-20T18:36:17.383Z,13.10
2023-05-20T18:38:46.380Z,8.75
2023-05-20T18:41:14.091Z,9.13
2023-05-20T18:43:41.710Z,11.85
2023-05-20T18:46:09.322Z,9.88
2023-05-20T18:48:37.321Z,8.02
2023-05-20T18:51:05.006Z,11.07
2023-05-20T18:53:32.605Z,9.35
2023-05-20T18:56:03.158Z,12.73
2023-05-20T18:58:31.812Z,11.35
2023-05-20T19:00:59.386Z,11.10
2023-05-20T19:03:27.315Z,14.07
2023-05-20T19:05:54.948Z,13.77
2023-05-20T19:08:23.348Z,13.15
2023-05-20T19:10:51.238Z,9.20
2023-05-20T19:13:18.995Z,14.18
2023-05-20T19:15:46.790Z,11.18
2023-05-20T19:18:14.510Z,9.93
2023-05-20T19:20:42.147Z,9.68
2023-05-20T19:23:10.097Z,9.90
2023-05-20T19:25:37.823Z,8.25
2023-05-20T19:28:05.885Z,10.23
2023-05-20T19:30:33.491Z,10.75
2023-05-20T19:33:03.354Z,8.15
2023-05-20T19:35:31.266Z,9.55
2023-05-20T19:37:58.918Z,10.43
2023-05-20T19:40:26.476Z,16.02
2023-05-20T19:42:54.214Z,10.55
2023-05-20T19:45:23.344Z,9.32
2023-05-20T19:47:51.454Z,12.82
2023-05-20T19:50:19.086Z,12.13
2023-05-20T19:52:46.764Z,11.27
2023-05-20T19:55:14.831Z,8.93
2023-05-20T19:57:42.938Z,6.65
2023-05-20T20:00:11.404Z,9.27
2023-05-20T20:02:41.934Z,10.55
2023-05-20T20:05:10.031Z,8.45
2023-05-20T20:07:37.686Z,11.02
2023-05-20T20:10:07.122Z,9.50
2023-05-20T20:12:35.174Z,13.52
2023-05-20T20:15:03.644Z,9.65
2023-05-20T20:17:33.903Z,8.25
2023-05-20T20:20:01.626Z,7.53
2023-05-20T20:22:29.616Z,10.60
2023-05-20T20:24:57.122Z,8.20
2023-05-20T20:27:24.889Z,9.38
2023-05-20T20:29:52.808Z,12.70
2023-05-20T20:32:20.606Z,12.07
2023-05-20T20:34:48.413Z,10.27
2023-05-20T20:37:15.952Z,11.30
2023-05-20T20:39:45.395Z,9.68
2023-05-20T20:42:13.164Z,14.82
2023-05-20T20:44:42.721Z,6.60
2023-05-20T20:47:10.446Z,9.23
2023-05-20T20:49:38.570Z,7.50
2023-05-20T20:52:06.726Z,7.97
2023-05-20T20:54:34.843Z,13.20
2023-05-20T20:57:02.879Z,12.25
2023-05-20T20:59:31.824Z,10.75
2023-05-20T21:01:59.577Z,9.02
2023-05-20T21:04:28.015Z,12.18
2023-05-20T21:06:55.575Z,8.93
2023-05-20T21:09:23.555Z,12.43
2023-05-20T21:11:51.001Z,6.95
2023-05-20T21:14:18.902Z,9.55
2023-05-20T21:16:46.559Z,8.15
2023-05-20T21:19:14.383Z,10.02
2023-05-20T21:21:42.817Z,11.23
2023-05-20T21:24:10.676Z,7.78
2023-05-20T21:26:38.254Z,10.57
2023-05-20T21:29:07.521Z,11.43
2023-05-20T21:31:35.209Z,10.27
2023-05-20T21:34:02.980Z,12.43
2023-05-20T21:36:30.755Z,12.20
2023-05-20T21:38:58.351Z,10.82
2023-05-20T21:41:27.267Z,14.32
2023-05-20T21:43:54.754Z,13.75
2023-05-20T21:46:22.554Z,11.48
2023-05-20T21:48:50.140Z,14.52
2023-05-20T21:51:17.741Z,13.68
2023-05-20T21:53:45.312Z,11.23
2023-05-20T21:56:12.940Z,13.88
2023-05-20T21:58:41.851Z,16.13
2023-05-20T22:01:10.060Z,19.23
2023-05-20T22:03:39.929Z,14.73
2023-05-20T22:06:07.845Z,15.77
2023-05-20T22:08:35.520Z,16.48
2023-05-20T22:11:07.542Z,13.02
2023-05-20T22:13:35.634Z,14.07
2023-05-20T22:16:05.066Z,15.13
2023-05-20T22:18:32.944Z,17.63
2023-05-20T22:21:01.106Z,14.05
2023-05-20T22:23:29.147Z,14.43
2023-05-20T22:25:56.882Z,17.05
2023-05-20T22:28:26.282Z,18.17
2023-05-20T22:30:54.855Z,14.15
2023-05-20T22:33:23.079Z,16.40
2023-05-20T22:35:58.183Z,15.35
2023-05-20T22:38:25.727Z,20.67
2023-05-20T22:40:53.215Z,17.48
2023-05-20T22:43:23.375Z,19.52
2023-05-20T22:45:51.137Z,16.52
2023-05-20T22:48:23.049Z,18.73
2023-05-20T22:50:51.310Z,14.80
2023-05-20T22:53:20.244Z,12.18
2023-05-20T22:55:48.245Z,13.82
2023-05-20T22:58:16.444Z,12.73
2023-05-20T23:00:44.636Z,13.88
2023-05-20T23:03:12.592Z,15.43
2023-05-20T23:05:41.079Z,12.23
2023-05-20T23:08:08.588Z,14.70
2023-05-20T23:10:36.185Z,18.25
2023-05-20T23:13:03.800Z,14.75
2023-05-20T23:15:31.555Z,16.98
2023-05-20T23:17:59.149Z,12.48
2023-05-20T23:20:29.340Z,11.93
2023-05-20T23:22:56.924Z,17.52
2023-05-20T23:25:27.108Z,13.60
2023-05-20T23:27:55.010Z,11.18
2023-05-20T23:30:22.866Z,8.70
2023-05-20T23:32:51.398Z,6.90
2023-05-20T23:35:19.643Z,9.25
2023-05-20T23:37:47.456Z,9.75
2023-05-20T23:40:15.259Z,5.57
2023-05-20T23:42:43.508Z,6.18
2023-05-20T23:45:11.721Z,7.53
2023-05-20T23:47:40.332Z,7.03
2023-05-20T23:50:08.440Z,7.20
2023-05-20T23:52:36.423Z,7.53
2023-05-20T23:55:04.271Z,8.90
2023-05-20T23:57:31.937Z,5.65
2023-05-20T23:59:59.435Z,6.47
